Leoma, TN (38468)

12:46 AM CDT die 25o June, anno 2018 (GMT -0500)
Hood Hills | | Change Station

Elev 942 ft 35.22 °N, 87.33 °W | Updated 28 seconds ago

Serena
Serena
72.9 °F
Feels Like 72.9 °F
N
0
Ventus Variabilis Ventus from Zephyrus
Gusts 0.0 mph

Hodie
High -- | Low -- °F
--% Chance of Precip.
Yesterday
High -- | Low -- °F
Precip. -- in
Pressio 29.97 in
Visibilitas 8.0 milia passuum
Clouds Nubes Dispersae 200 ft
Frigus in quo Ros apparet 72 °F
Umor 98%
Rainfall 0.00 in
Snow Depth Not available.
5:36 AM 8:07 PM
Waxing Gibbous, 92% visible
METAR KMRC 250535Z AUTO 21004KT 8SM SCT002 24/24 A2997 RMK A01
Pressio 29.97 in
Visibilitas 8.0 milia passuum
Clouds Nubes Dispersae 200 ft
Frigus in quo Ros apparet 72 °F
Umor 98%
Rainfall 0.00 in
Snow Depth Not available.
5:36 AM 8:07 PM
Waxing Gibbous, 92% visible
METAR KMRC 250535Z AUTO 21004KT 8SM SCT002 24/24 A2997 RMK A01

Get Severe Weather Alerts

Thanks for signing up!

Be on the lookout for a verification email in your inbox.

You'll start receiving the daily forecast at 6 AM.

×

10-Day Weather Forecast

Almanac

Astronomy

Jun. 25, 2018 Rise Set
Actual Time
Civil Twilight
Nautical Twilight
Astronomical Twilight
Moon
Length Of Visible Light
Length of Day
Tomorrow will be .
, % of the Moon is Illuminated

Today's Extremes

State Highs State Lows

Community

WunderPhotos

Category 6

Welcome to Category 6. This is the collective home for Weather Underground's featured writeups by Dr. Jeff Masters (right), Bob Henson (left), Chris Burt, and other regular contributors.

Nearby

Air Quality

  Air Quality AQ Index Pollutant
Not available.

Snow Depth

Station Depth Elevation

Earthquake Activity

City Distance Mag. Time & Date
Minimum magnitude displayed is 2.5.

Coastal Water Temperatures

Locus Calor

Stations

Nearby Weather Stations

Station Location Temp Frigus Venti Frigus in quo Ros apparet Umor Ventus Precip. Elev Renovata Type
                   

Watches & Warnings

There are currently no watches in effect.